createdAt,value
2017-07-09T00:00:50.610Z,18.30
2017-07-09T00:03:19.891Z,18.30
2017-07-09T00:05:48.383Z,18.30
2017-07-09T00:08:16.863Z,18.40
2017-07-09T00:10:46.051Z,18.40
2017-07-09T00:13:15.133Z,18.30
2017-07-09T00:15:43.632Z,18.20
2017-07-09T00:18:12.036Z,18.20
2017-07-09T00:20:40.360Z,18.20
2017-07-09T00:23:09.474Z,18.30
2017-07-09T00:25:38.581Z,18.20
2017-07-09T00:28:07.775Z,18.00
2017-07-09T00:30:36.153Z,17.90
2017-07-09T00:33:04.514Z,17.80
2017-07-09T00:35:32.820Z,17.70
2017-07-09T00:38:01.282Z,17.70
2017-07-09T00:40:29.664Z,17.70
2017-07-09T00:42:59.460Z,17.80
2017-07-09T00:45:28.678Z,17.80
2017-07-09T00:47:57.787Z,17.90
2017-07-09T00:50:26.555Z,17.80
2017-07-09T00:52:54.884Z,17.90
2017-07-09T00:55:23.317Z,17.90
2017-07-09T00:57:52.410Z,17.90
2017-07-09T01:00:20.807Z,17.80
2017-07-09T01:02:49.264Z,17.90
2017-07-09T01:05:17.852Z,17.80
2017-07-09T01:07:46.920Z,17.70
2017-07-09T01:10:15.426Z,17.70
2017-07-09T01:12:44.740Z,17.50
2017-07-09T01:15:13.304Z,17.40
2017-07-09T01:17:42.371Z,17.40
2017-07-09T01:20:10.683Z,17.30
2017-07-09T01:22:39.926Z,17.30
2017-07-09T01:25:08.251Z,17.20
2017-07-09T01:27:37.559Z,17.30
2017-07-09T01:30:05.924Z,17.20
2017-07-09T01:32:35.006Z,17.20
2017-07-09T01:35:03.713Z,17.20
2017-07-09T01:37:32.801Z,17.20
2017-07-09T01:40:02.018Z,17.10
2017-07-09T01:42:30.475Z,17.20
2017-07-09T01:44:58.854Z,17.20
2017-07-09T01:47:28.152Z,17.10
2017-07-09T01:49:57.228Z,17.10
2017-07-09T01:52:25.631Z,17.10
2017-07-09T01:54:54.823Z,17.10
2017-07-09T01:57:23.151Z,17.00
2017-07-09T01:59:51.683Z,17.10
2017-07-09T02:02:20.759Z,17.30
2017-07-09T02:04:49.259Z,17.20
2017-07-09T02:07:17.611Z,17.30
2017-07-09T02:09:45.911Z,17.30
2017-07-09T02:12:14.596Z,17.30
2017-07-09T02:14:43.420Z,17.20
2017-07-09T02:17:11.727Z,17.20
2017-07-09T02:19:40.151Z,17.20
2017-07-09T02:22:09.220Z,17.00
2017-07-09T02:24:37.545Z,17.00
2017-07-09T02:27:05.891Z,17.00
2017-07-09T02:29:35.291Z,16.80
2017-07-09T02:32:04.355Z,16.80
2017-07-09T02:34:33.294Z,16.80
2017-07-09T02:37:01.650Z,16.90
2017-07-09T02:39:30.048Z,16.90
2017-07-09T02:41:59.122Z,16.90
2017-07-09T02:44:27.509Z,16.90
2017-07-09T02:46:55.984Z,16.90
2017-07-09T02:49:25.083Z,16.90
2017-07-09T02:51:54.161Z,16.90
2017-07-09T02:54:22.526Z,16.90
2017-07-09T02:56:50.931Z,16.90
2017-07-09T02:59:19.523Z,16.90
2017-07-09T03:01:48.578Z,17.00
2017-07-09T03:04:16.895Z,17.00
2017-07-09T03:06:45.263Z,17.00
2017-07-09T03:09:14.331Z,17.10
2017-07-09T03:11:43.667Z,17.30
2017-07-09T03:14:12.773Z,17.30
2017-07-09T03:16:41.822Z,17.30
2017-07-09T03:19:10.138Z,17.20
2017-07-09T03:21:39.220Z,17.40
2017-07-09T03:24:08.614Z,17.40
2017-07-09T03:26:37.684Z,17.40
2017-07-09T03:29:06.009Z,17.30
2017-07-09T03:31:34.468Z,17.40
2017-07-09T03:34:03.539Z,17.50
2017-07-09T03:36:32.660Z,17.40
2017-07-09T03:39:01.056Z,17.40
2017-07-09T03:41:30.140Z,17.40
2017-07-09T03:43:58.608Z,17.40
2017-07-09T03:46:27.712Z,17.50
2017-07-09T03:48:56.813Z,17.50
2017-07-09T03:51:25.146Z,17.50
2017-07-09T03:53:53.562Z,17.60
2017-07-09T03:56:23.059Z,17.60
2017-07-09T03:58:51.511Z,17.50
2017-07-09T04:01:19.812Z,17.60
2017-07-09T04:03:48.911Z,17.60
2017-07-09T04:06:17.239Z,17.60
2017-07-09T04:08:45.613Z,17.70
2017-07-09T04:11:13.920Z,17.70
2017-07-09T04:13:42.636Z,17.70
2017-07-09T04:16:11.445Z,17.70
2017-07-09T04:18:39.771Z,17.70
2017-07-09T04:21:08.898Z,17.90
2017-07-09T04:23:37.991Z,17.90
2017-07-09T04:26:07.101Z,17.90
2017-07-09T04:28:35.455Z,17.90
2017-07-09T04:31:04.755Z,17.90
2017-07-09T04:33:33.839Z,17.90
2017-07-09T04:36:02.123Z,17.90
2017-07-09T04:38:31.219Z,18.00
2017-07-09T04:41:00.296Z,18.00
2017-07-09T04:43:29.005Z,17.90
2017-07-09T04:45:58.084Z,17.90
2017-07-09T04:48:26.384Z,17.90
2017-07-09T04:50:54.757Z,17.90
2017-07-09T04:53:23.847Z,18.00
2017-07-09T04:55:53.143Z,17.90
2017-07-09T04:58:22.239Z,17.90
2017-07-09T05:00:50.632Z,17.90
2017-07-09T05:03:19.815Z,17.80
2017-07-09T05:05:48.879Z,17.80
2017-07-09T05:08:17.207Z,17.70
2017-07-09T05:10:45.544Z,17.70
2017-07-09T05:13:14.247Z,17.60
2017-07-09T05:15:43.358Z,17.50
2017-07-09T05:18:11.671Z,17.50
2017-07-09T05:20:39.991Z,17.60
2017-07-09T05:23:08.388Z,17.50
2017-07-09T05:25:37.779Z,17.60
2017-07-09T05:28:06.885Z,17.50
2017-07-09T05:30:35.980Z,17.60
2017-07-09T05:33:04.325Z,17.60
2017-07-09T05:35:33.414Z,17.80
2017-07-09T05:38:01.883Z,17.70
2017-07-09T05:40:30.191Z,17.90
2017-07-09T05:42:58.687Z,17.90
2017-07-09T05:45:27.016Z,17.90
2017-07-09T05:47:55.332Z,18.00
2017-07-09T05:50:24.524Z,18.00
2017-07-09T05:52:53.013Z,18.00
2017-07-09T05:55:22.260Z,18.00
2017-07-09T05:57:50.597Z,17.90
2017-07-09T06:00:19.640Z,17.90
2017-07-09T06:02:48.401Z,17.80
2017-07-09T06:05:16.754Z,17.60
2017-07-09T06:07:45.819Z,17.60
2017-07-09T06:10:14.135Z,17.60
2017-07-09T06:12:42.446Z,17.70
2017-07-09T06:15:11.174Z,17.70
2017-07-09T06:17:40.354Z,17.70
2017-07-09T06:20:08.635Z,17.70
2017-07-09T06:22:36.954Z,17.70
2017-07-09T06:25:05.309Z,17.80
2017-07-09T06:27:34.525Z,17.90
2017-07-09T06:30:02.979Z,17.80
2017-07-09T06:32:32.286Z,18.00
2017-07-09T06:35:00.610Z,17.90
2017-07-09T06:37:28.957Z,18.10
2017-07-09T06:39:57.541Z,18.10
2017-07-09T06:42:25.857Z,18.20
2017-07-09T06:44:54.156Z,18.20
2017-07-09T06:47:23.279Z,18.20
2017-07-09T06:49:51.584Z,18.20
2017-07-09T06:52:20.125Z,18.10
2017-07-09T06:54:49.227Z,18.20
2017-07-09T06:57:17.656Z,18.20
2017-07-09T06:59:46.085Z,18.30
2017-07-09T07:02:14.461Z,18.40
2017-07-09T07:04:43.098Z,18.50
2017-07-09T07:07:11.424Z,18.50
2017-07-09T07:09:40.510Z,18.50
2017-07-09T07:12:10.017Z,18.60
2017-07-09T07:14:39.085Z,18.60
2017-07-09T07:17:07.497Z,18.60
2017-07-09T07:19:36.576Z,18.80
2017-07-09T07:22:04.966Z,18.80
2017-07-09T07:24:34.259Z,18.90
2017-07-09T07:27:02.564Z,18.90
2017-07-09T07:29:30.913Z,18.90
2017-07-09T07:32:00.008Z,18.90
2017-07-09T07:34:29.077Z,18.80
2017-07-09T07:36:57.480Z,18.80
2017-07-09T07:39:25.774Z,18.90
2017-07-09T07:41:54.241Z,18.90
2017-07-09T07:44:22.624Z,18.90
2017-07-09T07:46:51.691Z,18.90
2017-07-09T07:49:21.008Z,18.90
2017-07-09T07:51:50.086Z,18.90
2017-07-09T07:54:18.383Z,18.90
2017-07-09T07:56:46.763Z,19.00
2017-07-09T07:59:15.362Z,19.10
2017-07-09T08:01:43.699Z,19.20
2017-07-09T08:04:12.783Z,19.20
2017-07-09T08:06:41.199Z,19.20
2017-07-09T08:09:10.288Z,19.20
2017-07-09T08:11:39.688Z,19.20
2017-07-09T08:14:08.751Z,19.20
2017-07-09T08:16:37.062Z,19.10
2017-07-09T08:19:05.437Z,19.20
2017-07-09T08:21:34.504Z,19.30
2017-07-09T08:24:03.632Z,19.50
2017-07-09T08:26:32.208Z,19.50
2017-07-09T08:29:01.607Z,19.90
2017-07-09T08:31:30.104Z,19.80
2017-07-09T08:33:58.440Z,20.40
2017-07-09T08:36:26.768Z,20.80
2017-07-09T08:38:55.084Z,21.20
2017-07-09T08:41:23.604Z,21.30
2017-07-09T08:43:52.708Z,21.50
2017-07-09T08:46:21.093Z,21.50
2017-07-09T08:48:49.443Z,21.80
2017-07-09T08:51:17.777Z,22.00
2017-07-09T08:53:46.381Z,22.20
2017-07-09T08:56:15.475Z,22.30
2017-07-09T08:58:44.610Z,22.50
2017-07-09T09:01:13.902Z,22.60
2017-07-09T09:03:42.396Z,22.60
2017-07-09T09:06:10.762Z,22.40
2017-07-09T09:08:39.071Z,22.30
2017-07-09T09:11:07.385Z,22.00
2017-07-09T09:13:36.111Z,21.90
2017-07-09T09:16:05.452Z,21.40
2017-07-09T09:18:34.083Z,21.40
2017-07-09T09:21:02.426Z,21.40
2017-07-09T09:23:31.540Z,21.30
2017-07-09T09:25:59.903Z,21.30
2017-07-09T09:28:28.216Z,21.40
2017-07-09T09:30:57.312Z,21.80
2017-07-09T09:33:26.379Z,22.00
2017-07-09T09:35:54.879Z,21.90
2017-07-09T09:38:23.203Z,22.00
2017-07-09T09:40:51.532Z,22.00
2017-07-09T09:43:20.627Z,22.00
2017-07-09T09:45:49.697Z,22.10
2017-07-09T09:48:18.101Z,22.10
2017-07-09T09:50:46.479Z,22.40
2017-07-09T09:53:14.962Z,22.70
2017-07-09T09:55:44.062Z,22.80
2017-07-09T09:58:13.166Z,22.90
2017-07-09T10:00:41.557Z,22.90
2017-07-09T10:03:09.853Z,23.00
2017-07-09T10:05:38.283Z,23.20
2017-07-09T10:08:06.643Z,23.30
2017-07-09T10:10:35.754Z,23.30
2017-07-09T10:13:04.863Z,23.30
2017-07-09T10:15:33.431Z,23.30
2017-07-09T10:18:01.759Z,23.20
2017-07-09T10:20:30.089Z,23.20
2017-07-09T10:22:58.461Z,22.90
2017-07-09T10:25:27.575Z,22.50
2017-07-09T10:27:56.011Z,22.40
2017-07-09T10:30:24.311Z,22.20
2017-07-09T10:32:53.387Z,22.10
2017-07-09T10:35:21.726Z,22.10
2017-07-09T10:37:50.046Z,22.20
2017-07-09T10:40:18.364Z,22.30
2017-07-09T10:42:46.697Z,22.50
2017-07-09T10:45:15.140Z,22.60
2017-07-09T10:47:43.493Z,22.80
2017-07-09T10:50:11.935Z,22.90
2017-07-09T10:52:40.264Z,23.00
2017-07-09T10:55:08.556Z,23.00
2017-07-09T10:57:36.991Z,23.00
2017-07-09T11:00:05.304Z,22.90
2017-07-09T11:02:33.611Z,22.90
2017-07-09T11:05:01.966Z,23.00
2017-07-09T11:07:30.292Z,23.10
2017-07-09T11:09:59.492Z,23.10
2017-07-09T11:12:28.568Z,23.10
2017-07-09T11:14:56.895Z,23.00
2017-07-09T11:17:25.229Z,23.20
2017-07-09T11:19:54.308Z,24.20
2017-07-09T11:22:22.639Z,24.20
2017-07-09T11:24:50.934Z,24.70
2017-07-09T11:27:19.571Z,25.10
2017-07-09T11:29:48.003Z,25.50
2017-07-09T11:32:16.316Z,25.90
2017-07-09T11:34:44.817Z,26.20
2017-07-09T11:37:13.867Z,26.20
2017-07-09T11:39:42.170Z,26.10
2017-07-09T11:42:11.368Z,26.40
2017-07-09T11:44:39.706Z,26.40
2017-07-09T11:47:08.003Z,26.70
2017-07-09T11:49:36.407Z,27.00
2017-07-09T11:52:05.491Z,27.50
2017-07-09T11:54:34.292Z,27.50
2017-07-09T11:57:03.610Z,27.50
2017-07-09T11:59:31.931Z,27.40
2017-07-09T12:02:00.252Z,27.50
2017-07-09T12:04:29.322Z,27.10
2017-07-09T12:06:57.747Z,27.10
2017-07-09T12:09:26.056Z,27.00
2017-07-09T12:11:54.365Z,26.80
2017-07-09T12:14:23.464Z,26.60
2017-07-09T12:16:51.799Z,26.60
2017-07-09T12:19:20.152Z,26.60
2017-07-09T12:21:48.480Z,26.50
2017-07-09T12:24:17.186Z,26.50
2017-07-09T12:26:45.509Z,26.40
2017-07-09T12:29:13.820Z,26.40
2017-07-09T12:31:42.145Z,26.50
2017-07-09T12:34:10.456Z,26.50
2017-07-09T12:36:38.772Z,26.70
2017-07-09T12:39:07.099Z,26.80
2017-07-09T12:41:35.540Z,26.80
2017-07-09T12:44:03.963Z,26.90
2017-07-09T12:46:32.263Z,27.00
2017-07-09T12:49:00.701Z,27.10
2017-07-09T12:51:29.000Z,27.20
2017-07-09T12:53:57.300Z,27.50
2017-07-09T12:56:25.658Z,27.80
2017-07-09T12:58:53.972Z,28.20
2017-07-09T13:01:22.447Z,28.50
2017-07-09T13:03:50.743Z,28.60
2017-07-09T13:06:19.047Z,28.90
2017-07-09T13:08:47.376Z,29.30
2017-07-09T13:11:16.451Z,29.70
2017-07-09T13:13:44.901Z,29.70
2017-07-09T13:16:13.202Z,29.80
2017-07-09T13:18:41.500Z,29.90
2017-07-09T13:21:09.831Z,30.30
2017-07-09T13:23:38.146Z,30.50
2017-07-09T13:26:07.347Z,30.60
2017-07-09T13:28:36.430Z,30.60
2017-07-09T13:31:04.724Z,30.60
2017-07-09T13:33:34.026Z,30.70
2017-07-09T13:36:03.097Z,30.70
2017-07-09T13:38:32.189Z,30.40
2017-07-09T13:41:00.900Z,30.40
2017-07-09T13:43:29.970Z,29.90
2017-07-09T13:45:58.267Z,29.80
2017-07-09T13:48:27.382Z,29.80
2017-07-09T13:50:55.693Z,29.80
2017-07-09T13:53:24.176Z,29.80
2017-07-09T13:55:52.490Z,29.80
2017-07-09T13:58:21.567Z,29.00
2017-07-09T14:00:49.900Z,29.00
2017-07-09T14:03:18.195Z,28.80
2017-07-09T14:05:46.946Z,28.60
2017-07-09T14:08:15.250Z,28.60
2017-07-09T14:10:43.588Z,28.50
2017-07-09T14:13:12.157Z,28.60
2017-07-09T14:15:40.468Z,28.20
2017-07-09T14:18:08.770Z,28.10
2017-07-09T14:20:37.108Z,28.10
2017-07-09T14:23:05.425Z,28.00
2017-07-09T14:25:33.771Z,27.90
2017-07-09T14:28:02.080Z,27.90
2017-07-09T14:30:30.572Z,28.00
2017-07-09T14:32:58.888Z,28.20
2017-07-09T14:35:27.210Z,28.30
2017-07-09T14:37:55.755Z,28.30
2017-07-09T14:40:24.068Z,28.60
2017-07-09T14:42:52.579Z,28.70
2017-07-09T14:45:20.904Z,28.80
2017-07-09T14:47:49.228Z,28.90
2017-07-09T14:50:17.872Z,29.10
2017-07-09T14:52:46.192Z,29.40
2017-07-09T14:55:14.504Z,29.80
2017-07-09T14:57:42.947Z,30.10
2017-07-09T15:00:11.259Z,30.20
2017-07-09T15:02:39.595Z,30.40
2017-07-09T15:05:07.955Z,30.30
2017-07-09T15:07:36.267Z,30.30
2017-07-09T15:10:04.600Z,30.20
2017-07-09T15:12:32.907Z,30.40
2017-07-09T15:15:01.338Z,30.70
2017-07-09T15:17:29.678Z,31.10
2017-07-09T15:19:57.971Z,31.50
2017-07-09T15:22:26.332Z,31.40
2017-07-09T15:24:54.639Z,31.10
2017-07-09T15:27:24.025Z,30.30
2017-07-09T15:29:52.355Z,30.30
2017-07-09T15:32:20.665Z,30.10
2017-07-09T15:34:49.755Z,29.50
2017-07-09T15:37:18.837Z,30.10
2017-07-09T15:39:47.505Z,30.00
2017-07-09T15:42:15.820Z,31.00
2017-07-09T15:44:44.905Z,32.70
2017-07-09T15:47:13.239Z,32.70
2017-07-09T15:49:41.548Z,33.10
2017-07-09T15:52:10.771Z,32.60
2017-07-09T15:54:39.107Z,32.50
2017-07-09T15:57:07.412Z,32.00
2017-07-09T15:59:36.511Z,30.80
2017-07-09T16:02:04.958Z,30.70
2017-07-09T16:04:33.446Z,30.40
2017-07-09T16:07:01.763Z,30.00
2017-07-09T16:09:30.126Z,30.20
2017-07-09T16:11:58.890Z,30.50
2017-07-09T16:14:27.192Z,31.00
2017-07-09T16:16:56.404Z,32.30
2017-07-09T16:19:24.741Z,32.20
2017-07-09T16:21:53.229Z,32.90
2017-07-09T16:24:21.536Z,33.50
2017-07-09T16:26:49.888Z,34.00
2017-07-09T16:29:18.212Z,34.40
2017-07-09T16:31:46.504Z,34.60
2017-07-09T16:34:14.820Z,34.60
2017-07-09T16:36:43.142Z,35.00
2017-07-09T16:39:11.663Z,35.20
2017-07-09T16:41:40.131Z,35.80
2017-07-09T16:44:08.443Z,36.40
2017-07-09T16:46:37.856Z,36.80
2017-07-09T16:49:06.176Z,36.70
2017-07-09T16:51:34.495Z,36.40
2017-07-09T16:54:02.823Z,35.60
2017-07-09T16:56:31.381Z,34.80
2017-07-09T16:58:59.731Z,34.00
2017-07-09T17:01:28.123Z,33.00
2017-07-09T17:03:56.595Z,32.10
2017-07-09T17:06:25.668Z,30.70
2017-07-09T17:08:54.084Z,30.60
2017-07-09T17:11:22.507Z,30.10
2017-07-09T17:13:50.859Z,29.70
2017-07-09T17:16:19.188Z,29.20
2017-07-09T17:18:48.412Z,28.30
2017-07-09T17:21:16.723Z,28.30
2017-07-09T17:23:45.043Z,28.20
2017-07-09T17:26:14.165Z,27.90
2017-07-09T17:28:43.224Z,27.80
2017-07-09T17:31:11.538Z,27.70
2017-07-09T17:33:39.870Z,27.90
2017-07-09T17:36:08.385Z,28.10
2017-07-09T17:38:36.712Z,28.50
2017-07-09T17:41:05.021Z,29.10
2017-07-09T17:43:34.134Z,29.70
2017-07-09T17:46:03.216Z,29.80
2017-07-09T17:48:32.671Z,29.70
2017-07-09T17:51:00.985Z,29.70
2017-07-09T17:53:29.380Z,29.40
2017-07-09T17:55:57.801Z,29.20
2017-07-09T17:58:26.120Z,28.70
2017-07-09T18:00:55.663Z,28.00
2017-07-09T18:03:24.127Z,27.90
2017-07-09T18:05:52.424Z,27.60
2017-07-09T18:08:20.738Z,27.20
2017-07-09T18:10:49.174Z,26.50
2017-07-09T18:13:18.105Z,26.10
2017-07-09T18:15:46.408Z,25.70
2017-07-09T18:18:15.620Z,25.30
2017-07-09T18:20:43.932Z,25.20
2017-07-09T18:23:12.263Z,25.00
2017-07-09T18:25:40.603Z,24.90
2017-07-09T18:28:08.912Z,24.80
2017-07-09T18:30:37.415Z,24.60
2017-07-09T18:33:05.736Z,24.50
2017-07-09T18:35:34.039Z,24.40
2017-07-09T18:38:02.447Z,24.30
2017-07-09T18:40:31.153Z,24.20
2017-07-09T18:42:59.611Z,24.20
2017-07-09T18:45:27.924Z,24.10
2017-07-09T18:47:56.267Z,24.10
2017-07-09T18:50:24.655Z,24.00
2017-07-09T18:52:53.026Z,24.00
2017-07-09T18:55:21.367Z,23.80
2017-07-09T18:57:49.776Z,23.70
2017-07-09T19:00:18.971Z,23.60
2017-07-09T19:02:47.280Z,23.50
2017-07-09T19:05:15.611Z,23.50
2017-07-09T19:07:43.969Z,23.40
2017-07-09T19:10:12.264Z,23.30
2017-07-09T19:12:40.737Z,23.20
2017-07-09T19:15:09.042Z,23.20
2017-07-09T19:17:37.343Z,23.10
2017-07-09T19:20:05.899Z,23.00
2017-07-09T19:22:34.255Z,22.90
2017-07-09T19:25:03.389Z,22.70
2017-07-09T19:27:31.744Z,22.60
2017-07-09T19:30:00.050Z,22.70
2017-07-09T19:32:28.383Z,22.60
2017-07-09T19:34:56.733Z,22.50
2017-07-09T19:37:25.159Z,22.50
2017-07-09T19:39:53.463Z,22.50
2017-07-09T19:42:21.850Z,22.40
2017-07-09T19:44:50.190Z,22.40
2017-07-09T19:47:18.528Z,22.30
2017-07-09T19:49:46.881Z,22.20
2017-07-09T19:52:15.194Z,22.10
2017-07-09T19:54:44.419Z,21.90
2017-07-09T19:57:12.754Z,21.90
2017-07-09T19:59:41.070Z,21.80
2017-07-09T20:02:09.427Z,21.80
2017-07-09T20:04:38.564Z,21.70
2017-07-09T20:07:06.977Z,21.70
2017-07-09T20:09:35.313Z,21.70
2017-07-09T20:12:03.985Z,21.70
2017-07-09T20:14:33.047Z,21.60
2017-07-09T20:17:02.144Z,21.50
2017-07-09T20:19:30.770Z,21.50
2017-07-09T20:21:59.062Z,21.50
2017-07-09T20:24:27.389Z,21.50
2017-07-09T20:26:55.734Z,21.50
2017-07-09T20:29:24.171Z,21.50
2017-07-09T20:31:52.493Z,21.50
2017-07-09T20:34:20.988Z,21.50
2017-07-09T20:36:49.331Z,21.50
2017-07-09T20:39:17.647Z,21.50
2017-07-09T20:41:46.977Z,21.40
2017-07-09T20:44:15.302Z,21.40
2017-07-09T20:46:43.626Z,21.40
2017-07-09T20:49:12.734Z,21.40
2017-07-09T20:51:41.105Z,21.40
2017-07-09T20:54:09.445Z,21.40
2017-07-09T20:56:37.747Z,21.30
2017-07-09T20:59:06.266Z,21.30
2017-07-09T21:01:34.576Z,21.30
2017-07-09T21:04:03.094Z,21.30
2017-07-09T21:06:31.427Z,21.20
2017-07-09T21:08:59.781Z,21.20
2017-07-09T21:11:28.239Z,21.10
2017-07-09T21:13:56.607Z,21.10
2017-07-09T21:16:25.687Z,21.10
2017-07-09T21:18:54.163Z,21.00
2017-07-09T21:21:22.479Z,21.00
2017-07-09T21:23:51.002Z,21.00
2017-07-09T21:26:19.329Z,21.00
2017-07-09T21:28:47.803Z,21.00
2017-07-09T21:31:16.148Z,21.00
2017-07-09T21:33:44.448Z,21.00
2017-07-09T21:36:13.028Z,21.00
2017-07-09T21:38:42.103Z,21.00
2017-07-09T21:41:10.452Z,20.90
2017-07-09T21:43:38.775Z,21.00
2017-07-09T21:46:07.079Z,21.00
2017-07-09T21:48:35.411Z,20.90
2017-07-09T21:51:04.488Z,20.90
2017-07-09T21:53:33.738Z,20.80
2017-07-09T21:56:02.045Z,20.70
2017-07-09T21:58:30.342Z,20.80
2017-07-09T22:00:58.680Z,20.70
2017-07-09T22:03:26.982Z,20.70
2017-07-09T22:05:55.400Z,20.60
2017-07-09T22:08:24.480Z,20.60
2017-07-09T22:10:53.572Z,20.60
2017-07-09T22:13:21.898Z,20.60
2017-07-09T22:15:50.226Z,20.70
2017-07-09T22:18:18.647Z,20.70
2017-07-09T22:20:46.945Z,20.80
2017-07-09T22:23:15.471Z,20.80
2017-07-09T22:25:44.577Z,20.70
2017-07-09T22:28:13.644Z,20.70
2017-07-09T22:30:41.963Z,20.60
2017-07-09T22:33:10.499Z,20.60
2017-07-09T22:35:38.938Z,20.50
2017-07-09T22:38:07.299Z,20.50
2017-07-09T22:40:36.366Z,20.50
2017-07-09T22:43:04.689Z,20.40
2017-07-09T22:45:32.992Z,20.50
2017-07-09T22:48:01.320Z,20.50
2017-07-09T22:50:30.388Z,20.30
2017-07-09T22:52:59.195Z,20.30
2017-07-09T22:55:27.512Z,20.30
2017-07-09T22:57:55.830Z,20.30
2017-07-09T23:00:24.149Z,20.20
2017-07-09T23:02:52.446Z,20.20
2017-07-09T23:05:20.871Z,20.20
2017-07-09T23:07:49.203Z,20.20
2017-07-09T23:10:17.515Z,20.10
2017-07-09T23:12:45.841Z,20.10
2017-07-09T23:15:14.141Z,20.10
2017-07-09T23:17:42.771Z,20.20
2017-07-09T23:20:11.844Z,20.20
2017-07-09T23:22:40.159Z,20.10
2017-07-09T23:25:08.480Z,20.10
2017-07-09T23:27:36.778Z,20.20
2017-07-09T23:30:05.090Z,20.20
2017-07-09T23:32:33.386Z,20.20
2017-07-09T23:35:01.843Z,20.20
2017-07-09T23:37:30.263Z,20.20
2017-07-09T23:39:58.568Z,20.20
2017-07-09T23:42:27.253Z,20.20
2017-07-09T23:44:56.327Z,20.20
2017-07-09T23:47:24.618Z,20.10
2017-07-09T23:49:52.948Z,20.20
2017-07-09T23:52:21.258Z,20.20
2017-07-09T23:54:51.096Z,20.20
2017-07-09T23:57:20.179Z,20.20
2017-07-09T23:59:48.519Z,20.10
